01:56 MTB Moetz - Roppen - Oetztal Trail - Stams oben - Pfaffenhofen - MSC - Moetz
Ort Moetz Datum 03.09.2017 09:59:39
Kategorie MTB
Distanz 50,53 Kilometer Steigung 303,0 Meter Gefälle -312,0 Meter
Gesamt Zeit 01:56:49 Aktiv 01:56:02 Pause 00:00:47
Durchs. Tempo 26,1 km/h Tempo max. 45,1 km/h Tempo min. 10,1 km/h
Kalorien 0 Durchs. HF 125 BPM HF max. 147 BPM
Wetter 12 °C PartClouds Min/Max: 10,7 °C/13,9 °C; Druck: 1017,2 mbar; Rel. Feuchte: 88,7%; Taupunkt: 9,9 °C; Windgeschwindigkeit: 0,6 km/h; Niederschlag: 0,0mm
Ausrüstung BMC - Teamelite 02 XT 2016 XL
Bontrager - Race X Lite MTB
Notiz Moetz - Roppen - Oetztal Trail - Stams oben - Pfaffenhofen - MSC - Moetz ... tw. nass, nicht warm, leichter Wind - eher locker ... Oetztaltrail 4:32,0 - 1,56 - 20,6 - 136 - 79 ... garmin connect
Splits
Distanz (km) Gesamt Zeit Split Zeit Split Tempo Split Tempo Höhenprofil (m)
1,00 00:02:13 00:02:13 00:02:13 27,0 -9,22
2,00 00:04:23 00:02:10 00:02:11 27,6 5,27
3,00 00:06:43 00:02:19 00:02:19 25,9 9,52
4,00 00:08:54 00:02:11 00:02:12 27,3 0,72
5,00 00:11:06 00:02:11 00:02:12 27,4 2,31
6,00 00:13:15 00:02:08 00:02:09 27,9 -1,73
7,00 00:15:26 00:02:10 00:02:11 27,5 3,50
8,00 00:18:13 00:02:47 00:02:48 21,4 24,23
9,00 00:21:39 00:03:25 00:03:26 17,5 36,30
10,00 00:23:31 00:01:51 00:01:52 32,2 -13,58
11,00 00:25:21 00:01:50 00:01:50 32,7 -23,67
12,00 00:27:20 00:01:59 00:01:59 30,2 -2,82
13,00 00:30:13 00:02:52 00:02:53 20,8 18,98
14,00 00:32:54 00:02:41 00:02:41 22,3 4,11
15,00 00:34:52 00:01:58 00:01:58 30,4 -15,27
16,00 00:37:55 00:03:02 00:03:03 19,7 11,37
17,00 00:40:13 00:02:17 00:02:18 26,1 -5,02
18,00 00:42:12 00:01:59 00:02:00 30,1 -7,19
19,00 00:44:33 00:02:20 00:02:21 25,6 -4,90
20,00 00:47:39 00:03:05 00:03:06 19,4 6,60
21,00 00:50:35 00:02:56 00:02:56 20,5 -24,64
22,00 00:52:39 00:02:03 00:02:04 29,1 -3,38
23,00 00:55:11 00:02:32 00:02:32 23,6 2,64
24,00 00:57:26 00:02:15 00:02:15 26,6 0,38
25,00 00:59:30 00:02:03 00:02:03 29,2 -2,34
26,00 01:01:30 00:02:00 00:02:00 29,9 -2,57
27,00 01:03:29 00:01:59 00:01:59 30,2 -6,51
28,00 01:05:32 00:02:02 00:02:02 29,4 -3,15
29,00 01:07:33 00:02:01 00:02:01 29,7 -6,75
30,00 01:09:32 00:01:59 00:01:59 30,2 -0,39
31,00 01:12:20 00:02:47 00:02:47 21,5 25,22
32,00 01:14:36 00:02:16 00:02:16 26,4 -12,22
33,00 01:17:12 00:02:36 00:02:36 23,0 10,89
34,00 01:20:27 00:03:14 00:03:15 18,5 35,65
35,00 01:22:25 00:01:58 00:01:58 30,5 -12,52
36,00 01:24:19 00:01:54 00:01:54 31,5 -28,21
37,00 01:25:50 00:01:31 00:01:31 39,5 -32,35
38,00 01:27:54 00:02:03 00:02:03 29,2 -4,42
39,00 01:29:46 00:01:52 00:01:52 32,1 -3,00
40,00 01:32:14 00:02:27 00:02:27 24,4 -0,73
41,00 01:34:28 00:02:14 00:02:15 26,7 3,91
42,00 01:36:38 00:02:10 00:02:10 27,7 -1,03
43,00 01:38:58 00:02:19 00:02:20 25,8 -1,13
44,00 01:41:13 00:02:15 00:02:15 26,6 3,33
45,00 01:43:26 00:02:12 00:02:13 27,2 3,27
46,00 01:45:44 00:02:18 00:02:18 26,0 0,86
47,00 01:48:03 00:02:18 00:02:19 25,9 1,67
48,00 01:50:23 00:02:19 00:02:20 25,8 5,65
49,00 01:52:29 00:02:05 00:02:06 28,7 2,54
50,00 01:54:40 00:02:10 00:02:11 27,5 1,09
50,60 01:56:02 00:01:21 00:02:18 26,2 8,75